Time;durP1;ratioP1;P1;durP2;ratioP2;P2;SDS_P1;SDS_P2;PMS_P1;PMS_P2;Temp;Humidity;BMP_temperature;BMP_pressure;BME280_temperature;BME280_humidity;BME280_pressure;Samples;Min_cycle;Max_cycle;Signal;HPM_P1;HPM_P2
2022/06/24 00:00:42;;;;;;;7.70;1.80;;;15.00;1.00;15.40;93678.00;;;;7392613;19;20580;-78
2022/06/24 00:03:19;;;;;;;4.38;1.70;;;15.10;1.00;15.40;93695.00;;;;7388108;19;20128;-78
2022/06/24 00:05:56;;;;;;;3.95;2.15;;;15.10;1.00;15.40;93702.00;;;;7389542;19;20135;-79
2022/06/24 00:08:25;;;;;;;7.80;2.42;;;15.10;1.00;15.40;93715.00;;;;7391309;19;20305;-78
2022/06/24 00:10:54;;;;;;;3.85;1.70;;;15.10;1.00;15.40;93695.00;;;;7388445;19;20546;-77
2022/06/24 00:13:41;;;;;;;3.60;1.77;;;15.00;1.00;15.40;93705.00;;;;7390204;19;20191;-77
2022/06/24 00:16:10;;;;;;;9.35;2.25;;;15.00;1.00;15.40;93687.00;;;;7388649;19;20137;-77
2022/06/24 00:18:46;;;;;;;4.78;1.90;;;15.00;1.00;15.40;93696.00;;;;7389778;19;20133;-76
2022/06/24 00:21:14;;;;;;;2.72;1.75;;;15.00;1.00;15.50;93707.00;;;;7392390;19;20602;-76
2022/06/24 00:23:43;;;;;;;9.35;2.05;;;15.00;1.00;15.50;93697.00;;;;7395132;19;20227;-78
2022/06/24 00:26:17;;;;;;;4.53;1.98;;;15.00;1.00;15.50;93690.00;;;;7397445;19;20128;-76
2022/06/24 00:28:47;;;;;;;5.57;2.55;;;15.00;4.40;15.50;93694.00;;;;7393606;19;20603;-77
2022/06/24 00:31:16;;;;;;;10.57;2.70;;;15.00;15.40;15.60;93689.00;;;;7395093;19;20156;-76
2022/06/24 00:33:49;;;;;;;5.90;2.47;;;15.00;25.70;15.50;93686.00;;;;7397628;19;20578;-77
2022/06/24 00:36:19;;;;;;;4.63;2.55;;;15.10;46.80;15.50;93696.00;;;;7395378;19;20600;-76
2022/06/24 00:38:55;;;;;;;5.85;2.65;;;15.00;62.20;15.50;93689.00;;;;7396599;19;20468;-76
2022/06/24 00:41:31;;;;;;;6.63;2.65;;;15.00;90.30;15.60;93683.00;;;;7395204;19;20590;-76
2022/06/24 00:44:03;;;;;;;6.65;2.90;;;15.00;99.90;15.50;93696.00;;;;7396835;19;20440;-77
2022/06/24 00:46:43;;;;;;;10.73;2.75;;;15.00;99.90;15.50;93693.00;;;;7395202;19;20128;-77
2022/06/24 00:49:14;;;;;;;8.00;2.53;;;15.00;99.90;15.40;93695.00;;;;7394979;19;20151;-77
2022/06/24 00:51:49;;;;;;;8.02;3.22;;;;;15.40;93702.00;;;;7395543;19;20145;-76
2022/06/24 00:54:17;;;;;;;7.97;2.78;;;;;15.40;93701.00;;;;7396322;19;20117;-77
2022/06/24 00:56:45;;;;;;;2.85;2.15;;;;;15.40;93700.00;;;;7396097;19;20125;-76
2022/06/24 00:59:19;;;;;;;6.60;2.65;;;;;15.40;93701.00;;;;7393415;19;20591;-76
2022/06/24 01:01:50;;;;;;;6.68;2.42;;;;;15.40;93704.00;;;;7394818;19;20147;-79
2022/06/24 01:04:18;;;;;;;7.63;2.88;;;;;15.40;93706.00;;;;7394145;19;20137;-78
2022/06/24 01:06:52;;;;;;;6.15;2.92;;;;;15.40;93689.00;;;;7394574;19;20208;-79
2022/06/24 01:09:20;;;;;;;6.80;2.80;;;;;15.30;93701.00;;;;7395083;19;20145;-78
2022/06/24 01:11:53;;;;;;;6.25;3.00;;;;;15.30;93691.00;;;;7392503;19;20179;-81
2022/06/24 01:14:33;;;;;;;8.00;2.88;;;;;15.30;93688.00;;;;7394150;19;20145;-80
2022/06/24 01:17:02;;;;;;;6.03;2.88;;;;;15.30;93686.00;;;;7395075;19;20140;-81
2022/06/24 01:19:36;;;;;;;6.03;2.75;;;;;15.20;93681.00;;;;7395002;19;20137;-81
2022/06/24 01:22:03;;;;;;;3.92;2.45;;;;;15.20;93689.00;;;;7392747;19;20129;-79
2022/06/24 01:24:31;;;;;;;4.30;2.90;;;;;15.20;93697.00;;;;7394619;19;20607;-79
2022/06/24 01:27:06;;;;;;;6.72;2.85;;;;;15.10;93699.00;;;;7394933;19;20128;-80
2022/06/24 01:29:35;;;;;;;5.22;2.80;;;;;15.10;93697.00;;;;7392887;19;20754;-80
2022/06/24 01:32:03;;;;;;;7.38;2.75;;;;;15.10;93695.00;;;;7392871;19;20603;-80
2022/06/24 01:34:39;;;;;;;2.97;2.65;;;;;15.00;93701.00;;;;7395140;19;20125;-81
2022/06/24 01:37:13;;;;;;;6.07;3.08;;;;;15.00;93689.00;;;;7393460;19;20137;-79
2022/06/24 01:39:47;;;;;;;4.85;2.72;;;;;15.00;93687.00;;;;7394560;19;20587;-80
2022/06/24 01:42:17;;;;;;;8.32;3.17;;;;;15.00;93680.00;;;;7392964;19;20713;-79
2022/06/24 01:44:44;;;;;;;5.00;3.28;;;;;15.00;93685.00;;;;7392972;19;20129;-78
2022/06/24 01:47:18;;;;;;;5.28;3.00;;;;;14.90;93680.00;;;;7392832;19;20140;-80
2022/06/24 01:49:48;;;;;;;7.13;3.83;;;;;15.00;93681.00;;;;7394113;19;20623;-80
2022/06/24 01:52:18;;;;;;;4.28;3.03;;;;;15.00;93678.00;;;;7392533;19;20148;-79
2022/06/24 01:54:52;;;;;;;8.15;3.35;;;;;15.00;93682.00;;;;7392282;19;20147;-79
2022/06/24 01:57:24;;;;;;;8.95;3.47;;;;;14.90;93674.00;;;;7393899;19;20141;-79
2022/06/24 01:59:52;;;;;;;3.67;3.05;;;;;14.90;93675.00;;;;7391827;19;20595;-79
2022/06/24 02:02:26;;;;;;;9.07;3.20;;;;;14.90;93678.00;;;;7392148;19;20137;-79
2022/06/24 02:04:54;;;;;;;6.68;2.95;;;;;14.90;93666.00;;;;7392239;19;20120;-79
2022/06/24 02:07:24;;;;;;;8.32;3.70;;;;;14.80;93666.00;;;;7393192;19;20592;-79
2022/06/24 02:15:51;;;;;;;5.70;3.20;;;;;14.80;93650.00;;;;7391947;19;20133;-78
2022/06/24 02:18:19;;;;;;;9.18;3.40;;;;;14.80;93647.00;;;;7391995;19;20575;-80
2022/06/24 02:20:53;;;;;;;6.85;3.40;;;;;14.70;93649.00;;;;7392798;19;20129;-79
2022/06/24 02:23:22;;;;;;;6.90;3.17;;;;;14.80;93643.00;;;;7390974;19;20591;-80
2022/06/24 02:25:53;;;;;;;7.78;3.67;;;;;14.70;93641.00;;;;7393399;19;20135;-81
2022/06/24 02:28:27;;;;;;;6.53;3.30;;;;;14.60;93648.00;;;;7392597;19;20579;-80
2022/06/24 02:30:57;;;;;;;8.32;3.70;;;;;14.60;93649.00;;;;7389483;19;20129;-79
2022/06/24 02:33:28;;;;;;;5.82;3.22;;;;;14.50;93645.00;;;;7391503;19;20981;-80
2022/06/24 02:36:03;;;;;;;6.78;3.97;;;;;14.50;93647.00;;;;7391634;19;20160;-79
2022/06/24 02:38:33;;;;;;;8.60;4.05;;;;;14.50;93647.00;;;;7391301;19;20137;-80
2022/06/24 02:41:01;;;;;;;9.05;4.05;;;;;14.50;93651.00;;;;7391171;19;20165;-80
2022/06/24 02:43:37;;;;;;;7.30;3.80;;;;;14.40;93643.00;;;;7388238;19;20159;-80
2022/06/24 02:46:14;;;;;;;10.98;3.90;;;;;14.40;93639.00;;;;7390308;19;20109;-79
2022/06/24 02:48:50;;;;;;;8.70;3.88;;;;;14.40;93643.00;;;;7391119;19;20678;-80
2022/06/24 02:51:18;;;;;;;10.95;4.50;;;;;14.40;93640.00;;;;7391374;19;20137;-80
2022/06/24 02:53:45;;;;;;;10.18;4.50;;;;;14.40;93643.00;;;;7391342;19;20137;-81
2022/06/24 02:56:24;;;;;;;7.70;4.00;;;;;14.40;93644.00;;;;7390712;19;20508;-80
2022/06/24 02:58:52;;;;;;;7.75;3.75;;;;;14.40;93632.00;;;;7391534;19;20946;-79
2022/06/24 03:01:30;;;;;;;6.85;4.00;;;;;14.30;93635.00;;;;7389322;19;20149;-78
2022/06/24 03:04:02;;;;;;;7.13;4.05;;;;;14.30;93637.00;;;;7389090;19;20468;-79
2022/06/24 03:06:37;;;;;;;12.18;4.32;;;;;14.40;93628.00;;;;7390518;19;20155;-79
2022/06/24 03:09:04;;;;;;;10.25;4.40;;;;;14.40;93633.00;;;;7390257;19;20188;-79
2022/06/24 03:11:32;;;;;;;8.55;4.47;;;;;14.50;93638.00;;;;7388867;19;20623;-79
2022/06/24 03:14:12;;;;;;;13.63;5.05;;;;;14.50;93638.00;;;;7389669;19;20133;-80
2022/06/24 03:16:40;;;;;;;12.45;4.75;;;;;14.50;93638.00;;;;7389280;19;20607;-77
2022/06/24 03:19:14;;;;;;;9.07;4.55;;;;;14.40;93632.00;;;;7391283;19;20152;-79
2022/06/24 03:21:42;;;;;;;12.05;4.70;;;;;14.50;93637.00;;;;7391549;19;20152;-79
2022/06/24 03:24:09;;;;;;;9.65;4.60;;;;;14.40;93628.00;;;;7387283;19;20154;-79
2022/06/24 03:26:45;;;;;;;9.43;4.47;;;;;14.40;93634.00;;;;7390504;19;20117;-80
2022/06/24 03:29:12;;;;;;;13.45;4.65;;;;;14.40;93635.00;;;;7389650;19;20131;-80
2022/06/24 03:31:45;;;;;;;13.50;5.10;;;;;14.40;93629.00;;;;7389881;19;20128;-79
2022/06/24 03:34:20;;;;;;;11.95;4.60;;;;;14.40;93631.00;;;;7389141;19;20137;-79
2022/06/24 03:36:50;;;;;;;10.07;5.18;;;;;14.40;93635.00;;;;7389729;19;20136;-79
2022/06/24 03:39:17;;;;;;;14.68;5.18;;;;;14.30;93636.00;;;;7388164;19;20137;-79
2022/06/24 03:41:51;;;;;;;11.00;4.57;;;;;14.30;93640.00;;;;7389507;19;20137;-79
2022/06/24 03:44:18;;;;;;;10.45;4.15;;;;;14.30;93636.00;;;;7390271;19;20532;-78
2022/06/24 03:46:50;;;;;;;8.38;4.53;;;;;14.40;93644.00;;;;7390291;19;20140;-80
2022/06/24 03:49:24;;;;;;;12.07;4.43;;;;;14.40;93640.00;;;;7389260;19;20153;-78
2022/06/24 03:51:52;;;;;;;10.93;4.90;;;;;14.30;93648.00;;;;7390130;19;20150;-78
2022/06/24 03:54:23;;;;;;;10.20;4.95;;;;;14.40;93641.00;;;;7389853;19;20149;-79
2022/06/24 03:56:57;;;;;;;11.45;5.22;;;;;14.40;93633.00;;;;7394872;19;20163;-79
2022/06/24 03:59:24;;;;;;;13.73;5.88;;;;;14.40;93628.00;;;;7399100;19;20125;-79
2022/06/24 04:01:54;;;;;;;10.45;5.28;;;;;14.40;93625.00;;;;7395154;19;20500;-80
2022/06/24 04:04:31;;;;;;;17.20;4.40;;;;;14.40;93622.00;;;;7396537;19;20141;-79
2022/06/24 04:06:59;;;;;;;11.63;5.05;;;;;14.40;93625.00;;;;7396587;19;20587;-78
2022/06/24 04:09:26;;;;;;;17.30;5.45;;;;;14.50;93620.00;;;;7396990;19;20607;-78
2022/06/24 04:12:07;;;;;;;12.68;5.55;;;;;14.60;93625.00;;;;7392251;19;20168;-79
2022/06/24 04:17:35;;;;;;;8.13;5.13;;;;;14.60;93621.00;;;;7397809;19;20591;-77
2022/06/24 04:20:08;;;;;;;11.18;5.60;;;;;14.70;93620.00;;;;7396254;19;20484;-77
2022/06/24 04:22:42;;;;;;;12.63;5.75;;;;;14.70;93627.00;;;;7394755;19;20157;-78
2022/06/24 04:25:12;;;;;;;9.45;5.32;;;;;14.70;93627.00;;;;7395421;19;20985;-78
2022/06/24 04:27:40;;;;;;;11.63;5.35;;;;;14.80;93618.00;;;;7396965;19;20129;-78
2022/06/24 04:30:16;;;;;;;10.05;4.78;;;;;14.80;93619.00;;;;7395077;19;20603;-78
2022/06/24 04:32:44;;;;;;;12.90;5.40;;;;;14.80;93614.00;;;;7394828;19;20129;-78
2022/06/24 04:35:11;;;;;;;9.95;5.20;;;;;14.80;93610.00;;;;7396131;19;20141;-78
2022/06/24 04:37:45;;;;;;;13.27;5.35;;;;;14.80;93607.00;;;;7395197;19;20133;-78
2022/06/24 04:40:19;;;;;;;15.85;5.43;;;;;14.90;93609.00;;;;7389296;19;20248;-78
2022/06/24 04:42:53;;;;;;;10.48;5.63;;;;;15.00;93613.00;;;;7395005;19;20190;-78
2022/06/24 04:45:21;;;;;;;11.55;5.80;;;;;15.10;93600.00;;;;7401216;19;20141;-79
2022/06/24 04:47:52;;;;;;;9.90;5.15;;;;;15.10;93601.00;;;;7396243;19;20151;-78
2022/06/24 04:50:27;;;;;;;10.43;5.18;;;;;15.10;93601.00;;;;7396846;19;20182;-79
2022/06/24 04:52:57;;;;;;;10.02;5.05;;;;;15.10;93591.00;;;;7398153;19;20144;-79
2022/06/24 04:55:27;;;;;;;8.10;5.03;;;;;15.20;93596.00;;;;7399423;19;20148;-79
2022/06/24 04:58:04;;;;;;;11.98;5.25;;;;;15.30;93594.00;;;;7397364;19;20163;-78
2022/06/24 05:00:33;;;;;;;10.20;5.05;;;;;15.40;93599.00;;;;7401097;19;20181;-79
2022/06/24 05:03:01;;;;;;;6.95;4.55;;;;;15.40;93596.00;;;;7401301;19;20164;-77
2022/06/24 05:05:35;;;;;;;8.18;5.15;;;;;15.60;93608.00;;;;7403778;19;20232;-79
2022/06/24 05:08:04;;;;;;;8.32;4.93;;;;;15.60;93620.00;;;;7400485;19;20217;-79
2022/06/24 05:10:32;;;;;;;8.65;4.60;;;;;16.00;93612.00;;;;7405213;19;20509;-78
2022/06/24 05:13:15;;;;;;;11.35;4.60;;;;;15.90;93620.00;;;;7403958;19;20183;-77
2022/06/24 05:15:43;;;;;;;9.38;4.45;;;;;16.00;93606.00;;;;7394821;19;20128;-78
2022/06/24 05:18:21;;;;;;;12.10;4.57;;;;;16.20;93612.00;;;;7398349;19;20144;-79
2022/06/24 05:20:52;;;;;;;10.40;4.88;;;;;16.20;93601.00;;;;7402622;19;20162;-79
2022/06/24 05:23:28;;;;;;;6.82;4.13;;;;;16.30;93607.00;;;;7403992;19;20128;-80
2022/06/24 05:26:01;;;;;;;10.00;4.47;;;;;16.30;93601.00;;;;7403720;19;20196;-78
2022/06/24 05:28:37;;;;;;;7.22;4.10;;;;;16.40;93602.00;;;;7402538;19;20143;-80
2022/06/24 05:31:07;;;;;;;10.02;4.53;;;;;16.60;93590.00;;;;7406416;19;20159;-79
2022/06/24 05:33:36;;;;;;;6.55;4.00;;;;;16.70;93588.00;;;;7400667;19;20172;-81
2022/06/24 05:36:11;;;;;;;10.35;4.40;;;;;16.80;93594.00;;;;7402671;19;20175;-79
2022/06/24 05:38:44;;;;;;;11.50;4.45;;;;;16.70;93591.00;;;;7404521;19;20161;-80
2022/06/24 05:41:26;;;;;;;9.98;4.68;;;;;16.70;93585.00;;;;7404238;19;20204;-78
2022/06/24 05:43:55;;;;;;;9.73;4.20;;;;;16.80;93587.00;;;;7401628;19;20624;-79
2022/06/24 05:46:29;;;;;;;11.80;4.47;;;;;16.80;93589.00;;;;7404606;19;20148;-79
2022/06/24 05:48:58;;;;;;;8.88;4.38;;;;;16.90;93587.00;;;;7404954;19;20706;-80
2022/06/24 05:51:36;;;;;;;15.75;4.38;;;;;17.20;93588.00;;;;7406905;19;20125;-79
2022/06/24 05:56:57;;;;;;;8.43;3.88;;;;;17.20;93583.00;;;;7409549;19;20141;-81
2022/06/24 05:59:31;;;;;;;8.93;4.15;;;;;17.40;93586.00;;;;7410137;19;20121;-80
2022/06/24 06:02:04;;;;;;;8.25;4.10;;;;;17.50;93598.00;;;;7403586;19;20153;-79
2022/06/24 06:04:39;;;;;;;8.18;4.55;;;;;17.70;93591.00;;;;7404676;19;20487;-80
2022/06/24 06:07:07;;;;;;;7.22;3.75;;;;;17.80;93587.00;;;;7405297;19;20140;-80
2022/06/24 06:09:37;;;;;;;12.05;4.07;;;;;17.60;93592.00;;;;7408070;19;20166;-82
2022/06/24 06:12:41;;;;;;;7.13;4.03;;;;;17.60;93587.00;;;;7413422;19;20192;31
2022/06/24 06:15:16;;;;;;;11.02;4.13;;;;;17.80;93582.00;;;;7419058;19;20159;-78
2022/06/24 06:17:54;;;;;;;8.60;4.20;;;;;18.00;93587.00;;;;7417155;19;20132;-80
2022/06/24 06:20:26;;;;;;;8.35;3.90;;;;;18.30;93586.00;;;;7408241;19;20632;-80
2022/06/24 06:23:04;;;;;;;7.00;4.10;;;;;18.40;93585.00;;;;7412090;19;20146;-83
2022/06/24 06:25:46;;;;;;;9.90;3.50;;;;;18.70;93588.00;;;;7398640;19;20599;-79
2022/06/24 06:28:20;;;;;;;8.93;3.72;;;;;18.60;93587.00;;;;7398356;19;20161;-82
2022/06/24 06:30:48;;;;;;;5.82;3.35;;;;;18.60;93589.00;;;;7400306;19;20496;-82
2022/06/24 06:33:16;;;;;;;9.30;3.63;;;;;18.70;93584.00;;;;7395117;19;20499;-82
2022/06/24 06:36:05;;;;;;;3.92;3.15;;;;;18.80;93589.00;;;;7400815;19;20145;-80
2022/06/24 06:38:49;;;;;;;8.27;3.35;;;;;18.70;93589.00;;;;7401761;19;20188;-81
2022/06/24 06:41:48;;;;;;;6.57;3.40;;;;;18.90;93589.00;;;;7383343;19;20198;-81
2022/06/24 06:44:17;;;;;;;6.55;2.88;;;;;18.90;93592.00;;;;7398699;19;20132;-81
2022/06/24 06:46:56;;;;;;;6.40;3.22;;;;;18.70;93600.00;;;;7407793;19;20137;-82
2022/06/24 06:52:10;;;;;;;7.30;3.00;;;;;18.40;93612.00;;;;7342975;19;20153;-83
2022/06/24 06:58:10;;;;;;;8.05;3.28;;;;;17.90;93617.00;;;;7396085;19;20175;-77
2022/06/24 07:00:48;;;;;;;6.80;2.60;;;;;17.90;93607.00;;;;7403771;19;20145;-78
2022/06/24 07:06:26;;;;;;;9.27;3.00;;;;;17.90;93610.00;;;;7393381;19;20196;-79
2022/06/24 07:12:13;;;;;;;5.10;2.90;;;;;18.00;93611.00;;;;7372039;19;20732;-80
2022/06/24 07:14:55;;;;;;;7.22;3.05;;;;;18.30;93613.00;;;;7412078;19;20147;-82
2022/06/24 07:17:26;;;;;;;4.03;2.95;;;;;18.50;93620.00;;;;7402142;19;20139;-83
2022/06/24 07:20:00;;;;;;;7.03;3.10;;;;;18.40;93616.00;;;;7397265;19;20141;-80
2022/06/24 07:22:28;;;;;;;6.13;2.72;;;;;18.60;93609.00;;;;7398515;19;20635;-79
2022/06/24 07:24:57;;;;;;;6.10;2.90;;;;;19.00;93599.00;;;;7395874;19;20623;-81
2022/06/24 07:27:34;;;;;;;2.83;2.63;;;;;19.10;93607.00;;;;7393535;19;20239;-81
2022/06/24 07:30:04;;;;;;;8.52;2.95;;;;;18.90;93607.00;;;;7394088;19;20612;-81
2022/06/24 07:32:39;;;;;;;4.05;2.10;;;;;18.80;93611.00;;;;7397354;19;20168;-77
2022/06/24 07:35:07;;;;;;;6.75;2.45;;;;;18.50;93598.00;;;;7397272;19;20129;-78
2022/06/24 07:37:55;;;;;;;6.57;2.58;;;;;18.50;93602.00;;;;7393938;19;20144;-78
2022/06/24 07:40:37;;;;;;;3.28;2.58;;;;;18.60;93606.00;;;;7395521;19;20171;-78
2022/06/24 07:43:04;;;;;;;5.03;2.70;;;;;18.80;93605.00;;;;7393813;19;20120;-78
2022/06/24 07:45:39;;;;;;;4.68;2.53;;;;;18.50;93608.00;;;;7394946;19;20156;-78
2022/06/24 07:48:11;;;;;;;3.65;2.40;;;;;18.50;93606.00;;;;7396575;19;20140;-77
2022/06/24 07:50:39;;;;;;;5.88;2.40;;;;;18.40;93598.00;;;;7397351;19;20133;-77
2022/06/24 07:53:14;;;;;;;5.93;2.38;;;;;18.10;93601.00;;;;7397230;19;20144;-76
2022/06/24 07:58:42;;;;;;;3.78;2.70;;;;;19.80;93578.00;;;;7396799;19;20236;-77
2022/06/24 08:01:13;;;;;;;4.10;2.40;;;;;20.20;93576.00;;;;7396183;19;20495;-77
2022/06/24 08:03:47;;;;;;;6.15;2.45;;;;;20.60;93571.00;;;;7393338;19;20144;-76
2022/06/24 08:06:15;;;;;;;8.65;2.40;;;;;21.00;93559.00;;;;7393584;19;20144;-77
2022/06/24 08:08:45;;;;;;;3.85;2.13;;;;;21.00;93555.00;;;;7396345;19;20125;-76
2022/06/24 08:11:33;;;;;;;3.67;2.00;;;;;21.00;93564.00;;;;7392324;19;20145;-78
2022/06/24 08:14:07;;;;;;;7.88;1.98;;;;;21.00;93554.00;;;;7393642;19;20152;-75
2022/06/24 08:16:42;;;;;;;4.20;1.88;;;;;21.50;93564.00;;;;7396300;19;20165;-75
2022/06/24 08:19:14;;;;;;;5.57;1.88;;;;;21.90;93548.00;;;;7398721;19;20133;-75
2022/06/24 08:21:51;;;;;;;4.28;2.40;;;;;22.50;93547.00;;;;7393590;19;20124;-76
2022/06/24 08:24:19;;;;;;;3.95;2.30;;;;;22.30;93561.00;;;;7391159;19;20133;-75
2022/06/24 08:26:52;;;;;;;6.18;2.08;;;;;21.40;93566.00;;;;7393423;19;20212;-76
2022/06/24 08:29:28;;;;;;;3.40;1.98;;;;;20.30;93572.00;;;;7394283;19;20133;-74
2022/06/24 08:31:56;;;;;;;2.97;1.77;;;;;20.10;93546.00;;;;7390643;19;20133;-74
2022/06/24 08:34:24;;;;;;;3.65;1.67;;;;;21.00;93541.00;;;;7392026;19;20706;-74
2022/06/24 08:37:01;;;;;;;3.97;1.80;;;;;21.50;93525.00;;;;7391543;19;20171;-74
2022/06/24 08:39:39;;;;;;;5.25;1.80;;;;;21.70;93522.00;;;;7394210;19;20191;-74
2022/06/24 08:42:14;;;;;;;2.55;2.13;;;;;22.40;93520.00;;;;7390581;19;20477;-75
2022/06/24 08:44:45;;;;;;;6.03;1.80;;;;;22.40;93521.00;;;;7396697;19;20144;-74
2022/06/24 08:47:14;;;;;;;3.08;2.13;;;;;22.90;93515.00;;;;7400496;19;20666;-75
2022/06/24 08:49:54;;;;;;;6.18;1.90;;;;;23.00;93511.00;;;;7397237;19;20145;-74
2022/06/24 08:52:21;;;;;;;3.63;1.98;;;;;22.90;93522.00;;;;7398760;19;20153;-74
2022/06/24 08:54:59;;;;;;;4.05;1.90;;;;;23.00;93509.00;;;;7401039;19;20636;-74
2022/06/24 08:57:30;;;;;;;2.10;1.58;;;;;23.20;93506.00;;;;7402741;19;20165;-75
2022/06/24 09:00:05;;;;;;;5.35;1.50;;;;;22.90;93533.00;;;;7400348;19;20163;-74
2022/06/24 09:02:35;;;;;;;4.50;1.80;;;;;22.10;93531.00;;;;7399659;19;20149;-74
2022/06/24 09:05:09;;;;;;;4.70;1.63;;;;;22.20;93508.00;;;;7400386;19;20135;-75
2022/06/24 09:07:46;;;;;;;4.05;1.70;;;;;23.20;93528.00;;;;7394747;19;20181;-76
2022/06/24 09:10:15;;;;;;;2.13;1.88;;;;;23.60;93505.00;;;;7399280;19;20788;-76
2022/06/24 09:12:45;;;;;;;2.50;1.60;;;;;23.40;93513.00;;;;7399625;19;20153;-74
2022/06/24 09:15:27;;;;;;;3.33;1.95;;;;;22.00;93527.00;;;;7401652;19;20171;-74
2022/06/24 09:17:55;;;;;;;2.60;1.63;;;;;21.60;93511.00;;;;7399118;19;20124;-74
2022/06/24 09:20:33;;;;;;;6.82;1.50;;;;;22.30;93517.00;;;;7400075;19;20168;-74
2022/06/24 09:23:09;;;;;;;3.10;1.50;;;;;23.30;93527.00;;;;7401377;19;20158;-74
2022/06/24 09:25:46;;;;;;;4.53;1.50;;;;;23.60;93513.00;;;;7397281;19;20140;-75
2022/06/24 09:28:23;;;;;;;2.88;1.60;;;;;23.90;93517.00;;;;7400913;19;20641;-72
2022/06/24 09:31:09;;;;;;;3.00;1.83;;;;;24.20;93513.00;;;;7404629;19;20144;-75
2022/06/24 09:33:37;;;;;;;4.38;1.70;;;;;24.70;93515.00;;;;7402148;19;20140;-74
2022/06/24 09:36:12;;;;;;;3.08;1.70;;;;;24.40;93509.00;;;;7402547;19;20136;-74
2022/06/24 09:38:56;;;;;;;1.83;1.40;;;;;25.00;93512.00;;;;7400615;19;20193;-76
2022/06/24 09:41:41;;;;;;;2.35;1.50;;;;;25.00;93513.00;;;;7403374;19;20159;-75
2022/06/24 09:44:09;;;;;;;3.97;1.65;;;;;24.20;93537.00;;;;7401367;19;20133;-75
2022/06/24 09:46:44;;;;;;;3.20;1.60;;;;;23.20;93542.00;;;;7400569;19;20132;-75
2022/06/24 09:49:14;;;;;;;3.22;1.70;;;;;23.40;93513.00;;;;7402297;19;20172;-74
2022/06/24 09:51:46;;;;;;;5.43;1.30;;;;;24.30;93531.00;;;;7398240;19;20149;-75
2022/06/24 09:54:21;;;;;;;2.97;1.55;;;;;23.90;93525.00;;;;7399261;19;20144;-75
2022/06/24 09:56:51;;;;;;;2.25;1.65;;;;;23.80;93515.00;;;;7400475;19;20192;-75
2022/06/24 10:02:21;;;;;;;3.33;1.40;;;;;25.60;93516.00;;;;7397912;19;20208;-75
2022/06/24 10:04:52;;;;;;;2.97;1.38;;;;;24.80;93517.00;;;;7399614;19;20142;-76
2022/06/24 10:07:32;;;;;;;1.95;1.30;;;;;24.30;93509.00;;;;7396616;19;20267;-75
2022/06/24 10:10:05;;;;;;;4.90;1.45;;;;;25.40;93511.00;;;;7397182;19;20502;-73
2022/06/24 10:12:56;;;;;;;2.17;1.40;;;;;25.50;93530.00;;;;7396504;19;20188;-75
2022/06/24 10:15:24;;;;;;;1.50;1.25;;;;;24.40;93511.00;;;;7399831;19;20152;-74
2022/06/24 10:18:01;;;;;;;2.58;1.30;;;;;24.90;93522.00;;;;7396377;19;20140;-75
2022/06/24 10:20:31;;;;;;;3.10;1.52;;;;;24.60;93532.00;;;;7398414;19;20153;-74
2022/06/24 10:22:59;;;;;;;1.60;1.30;;;;;23.90;93548.00;;;;7399793;19;20152;-75
2022/06/24 10:25:48;;;;;;;5.15;1.58;;;;;23.60;93548.00;;;;7395946;19;20188;-73
2022/06/24 10:28:18;;;;;;;3.75;1.42;;;;;23.30;93536.00;;;;7391278;19;20873;-74
2022/06/24 10:30:56;;;;;;;1.67;1.20;;;;;23.80;93537.00;;;;7395836;19;20132;-76
2022/06/24 10:33:28;;;;;;;2.92;1.60;;;;;23.90;93511.00;;;;7394973;19;20144;-74
2022/06/24 10:36:06;;;;;;;4.03;1.48;;;;;25.10;93527.00;;;;7391636;19;20595;-73
2022/06/24 10:38:43;;;;;;;4.18;1.60;;;;;26.30;93508.00;;;;7390607;19;20150;-75
2022/06/24 10:41:17;;;;;;;3.92;1.63;;;;;26.30;93518.00;;;;7393874;19;20144;-73
2022/06/24 10:43:45;;;;;;;4.38;1.70;;;;;26.30;93521.00;;;;7393207;19;20229;-74
2022/06/24 10:46:20;;;;;;;2.15;1.38;;;;;26.10;93519.00;;;;7393049;19;20153;-74
2022/06/24 10:48:57;;;;;;;2.60;1.25;;;;;25.50;93530.00;;;;7392399;19;20652;-73
2022/06/24 10:51:28;;;;;;;3.75;1.80;;;;;25.00;93524.00;;;;7395744;19;20133;-73
2022/06/24 10:54:02;;;;;;;3.10;1.30;;;;;24.50;93527.00;;;;7393180;19;20136;-73
2022/06/24 10:56:50;;;;;;;2.38;1.65;;;;;24.40;93522.00;;;;7391788;19;20920;-75
2022/06/24 10:59:28;;;;;;;3.58;1.60;;;;;24.70;93525.00;;;;7394588;19;20184;-74
2022/06/24 11:01:56;;;;;;;2.72;1.65;;;;;24.50;93517.00;;;;7391467;19;20155;-74
2022/06/24 11:04:30;;;;;;;2.35;1.40;;;;;24.40;93526.00;;;;7392444;19;20587;-74
2022/06/24 11:07:21;;;;;;;3.30;1.42;;;;;24.30;93531.00;;;;7387631;19;20143;-73
2022/06/24 11:09:49;;;;;;;4.85;1.55;;;;;24.00;93527.00;;;;7389273;19;20156;-74
2022/06/24 11:12:35;;;;;;;2.45;1.50;;;;;23.80;93529.00;;;;7389253;19;20160;-73
2022/06/24 11:15:03;;;;;;;3.25;1.50;;;;;23.80;93520.00;;;;7392521;19;20555;-74
2022/06/24 11:17:43;;;;;;;3.42;1.58;;;;;24.00;93523.00;;;;7389338;19;20149;-74
2022/06/24 11:20:12;;;;;;;3.08;1.73;;;;;24.20;93519.00;;;;7390069;19;20193;-76
2022/06/24 11:22:50;;;;;;;3.35;1.77;;;;;24.30;93515.00;;;;7391730;19;20137;-74
2022/06/24 11:25:22;;;;;;;2.90;1.40;;;;;24.20;93510.00;;;;7393030;19;20124;-76
2022/06/24 11:27:59;;;;;;;5.40;1.50;;;;;25.10;93504.00;;;;7389835;19;20128;-75
2022/06/24 11:30:29;;;;;;;2.33;1.70;;;;;26.30;93503.00;;;;7391643;19;20133;-73
2022/06/24 11:33:03;;;;;;;2.33;1.65;;;;;26.00;93507.00;;;;7391928;19;20148;-73
2022/06/24 11:35:31;;;;;;;2.33;1.45;;;;;25.90;93485.00;;;;7392669;19;20572;-74
2022/06/24 11:38:07;;;;;;;3.20;1.35;;;;;25.30;93505.00;;;;7389524;19;20200;-74
2022/06/24 11:40:42;;;;;;;2.65;1.40;;;;;24.80;93514.00;;;;7392432;19;20129;-74
2022/06/24 11:43:19;;;;;;;1.65;1.50;;;;;24.30;93518.00;;;;7392152;19;20595;-74
2022/06/24 11:45:57;;;;;;;3.13;1.48;;;;;24.00;93514.00;;;;7388432;19;20519;-73
2022/06/24 11:48:25;;;;;;;3.20;1.75;;;;;23.80;93526.00;;;;7389909;19;20141;-75
2022/06/24 11:50:53;;;;;;;3.30;1.70;;;;;23.60;93519.00;;;;7391062;19;20200;-75
2022/06/24 11:53:27;;;;;;;1.98;1.38;;;;;23.50;93519.00;;;;7391611;19;20203;-76
2022/06/24 11:55:55;;;;;;;2.20;1.45;;;;;23.80;93524.00;;;;7390008;19;20129;-75
2022/06/24 11:58:24;;;;;;;2.45;1.70;;;;;23.80;93521.00;;;;7390181;19;20607;-74
2022/06/24 12:01:00;;;;;;;3.83;1.40;;;;;24.20;93508.00;;;;7391706;19;20929;-73
2022/06/24 12:03:30;;;;;;;1.45;1.30;;;;;24.60;93497.00;;;;7390584;19;20147;-73
2022/06/24 12:06:01;;;;;;;3.08;1.42;;;;;25.10;93504.00;;;;7379657;19;20495;-76
2022/06/24 12:08:36;;;;;;;2.70;1.25;;;;;24.90;93507.00;;;;7389706;19;20473;-74
2022/06/24 12:11:14;;;;;;;3.03;1.60;;;;;24.50;93494.00;;;;7388590;19;20169;-75
2022/06/24 12:14:14;;;;;;;1.30;1.20;;;;;24.80;93490.00;;;;7382333;19;20201;-76
2022/06/24 12:17:08;;;;;;;2.30;1.30;;;;;24.60;93493.00;;;;7388225;19;20595;-74
2022/06/24 12:20:03;;;;;;;2.28;1.55;;;;;24.20;93487.00;;;;7391325;19;20475;-76
2022/06/24 12:22:31;;;;;;;2.72;1.40;;;;;24.60;93477.00;;;;7395103;19;20901;-73
2022/06/24 12:25:09;;;;;;;4.00;1.58;;;;;24.40;93479.00;;;;7397585;19;20140;-75
2022/06/24 12:27:39;;;;;;;3.50;1.30;;;;;25.40;93473.00;;;;7396934;19;20204;-74
2022/06/24 12:30:21;;;;;;;1.65;1.08;;;;;25.20;93469.00;;;;7397982;19;20232;-75
2022/06/24 12:33:00;;;;;;;2.83;1.40;;;;;25.70;93467.00;;;;7398066;19;20124;-73
2022/06/24 12:35:40;;;;;;;2.65;1.42;;;;;25.90;93481.00;;;;7396581;19;20516;-76
2022/06/24 12:38:18;;;;;;;2.95;1.40;;;;;24.80;93476.00;;;;7395469;19;20148;-74
2022/06/24 12:41:09;;;;;;;1.98;1.65;;;;;24.10;93483.00;;;;7398280;19;20124;-73
2022/06/24 12:43:50;;;;;;;1.45;1.33;;;;;24.40;93474.00;;;;7398189;19;20141;-75
2022/06/24 12:52:32;;;;;;;2.08;1.13;;;;;24.30;93492.00;;;;7396138;19;20606;-75
2022/06/24 12:55:01;;;;;;;2.63;1.30;;;;;24.60;93465.00;;;;7397012;19;20148;-74
2022/06/24 12:57:29;;;;;;;1.80;1.17;;;;;25.10;93473.00;;;;7396930;19;20215;-74
2022/06/24 13:00:08;;;;;;;3.58;1.20;;;;;24.70;93493.00;;;;7392081;19;20635;-76
2022/06/24 13:02:59;;;;;;;5.75;1.13;;;;;24.40;93503.00;;;;7396172;19;20808;-74
2022/06/24 13:05:34;;;;;;;4.57;1.30;;;;;24.30;93516.00;;;;7396273;19;20151;-74
2022/06/24 13:08:06;;;;;;;2.05;1.20;;;;;24.20;93513.00;;;;7395443;19;20152;-74
2022/06/24 13:10:40;;;;;;;2.35;1.40;;;;;24.00;93507.00;;;;7390583;19;20235;-74
2022/06/24 13:13:15;;;;;;;2.22;1.20;;;;;24.10;93505.00;;;;7396982;19;20603;-73
2022/06/24 13:15:49;;;;;;;3.20;1.30;;;;;24.30;93500.00;;;;7393465;19;20152;-75
2022/06/24 13:18:20;;;;;;;2.35;1.35;;;;;23.90;93505.00;;;;7386006;19;20132;-75